Time;durP1;ratioP1;P1;durP2;ratioP2;P2;SDS_P1;SDS_P2;PMS_P1;PMS_P2;Temp;Humidity;BMP_temperature;BMP_pressure;BME280_temperature;BME280_humidity;BME280_pressure;Samples;Min_cycle;Max_cycle;Signal;HPM_P1;HPM_P2
2023/08/10 00:02:16;;;;;;;0.80;0.80;;;;;;;13.53;100.00;99664.59;5075499;28;20687;-75
2023/08/10 00:04:42;;;;;;;1.00;0.90;;;;;;;13.48;100.00;99655.63;5072090;28;20664;-77
2023/08/10 00:07:09;;;;;;;0.93;0.93;;;;;;;13.40;100.00;99659.47;5087252;28;20223;-76
2023/08/10 00:09:36;;;;;;;1.03;0.70;;;;;;;13.38;100.00;99666.16;5090593;28;20192;-76
2023/08/10 00:12:03;;;;;;;0.80;0.80;;;;;;;13.34;100.00;99667.69;5095722;28;20223;-76
2023/08/10 00:14:30;;;;;;;1.07;0.97;;;;;;;13.33;100.00;99676.81;5099293;28;20190;-77
2023/08/10 00:16:56;;;;;;;1.13;1.00;;;;;;;13.32;100.00;99669.78;5111105;28;20244;-76
2023/08/10 00:19:24;;;;;;;1.03;0.90;;;;;;;13.25;100.00;99675.28;5105623;28;20199;-77
2023/08/10 00:21:51;;;;;;;1.37;0.80;;;;;;;13.22;100.00;99675.78;5099967;28;20285;-76
2023/08/10 00:24:17;;;;;;;1.47;1.00;;;;;;;13.18;100.00;99677.28;5103836;28;20222;-77
2023/08/10 00:26:44;;;;;;;0.80;0.80;;;;;;;13.15;100.00;99675.91;5110182;28;20220;-77
2023/08/10 00:29:10;;;;;;;1.13;0.97;;;;;;;13.09;100.00;99676.00;5091520;28;20287;-76
2023/08/10 00:31:37;;;;;;;1.10;0.90;;;;;;;13.06;100.00;99671.91;5083225;28;20195;-76
2023/08/10 00:34:04;;;;;;;3.87;1.67;;;;;;;13.04;100.00;99676.69;5091410;28;20618;-76
2023/08/10 00:36:30;;;;;;;3.03;0.90;;;;;;;12.99;100.00;99673.88;5098985;28;20187;-75
2023/08/10 00:38:57;;;;;;;0.90;0.90;;;;;;;12.93;100.00;99674.81;5098998;28;20650;-76
2023/08/10 00:41:24;;;;;;;2.03;1.17;;;;;;;12.89;100.00;99673.63;5104526;28;20299;-75
2023/08/10 00:43:50;;;;;;;0.90;0.90;;;;;;;12.85;100.00;99675.16;5084635;28;20199;-75
2023/08/10 00:46:17;;;;;;;1.33;1.23;;;;;;;12.79;100.00;99676.91;5095075;28;20212;-75
2023/08/10 00:48:44;;;;;;;1.47;1.10;;;;;;;12.77;100.00;99678.19;5094436;28;20647;-75
2023/08/10 00:51:10;;;;;;;1.00;1.00;;;;;;;12.74;100.00;99682.16;5082228;28;20223;-76
2023/08/10 00:53:37;;;;;;;1.53;1.00;;;;;;;12.70;100.00;99680.16;5098906;28;20222;-75
2023/08/10 00:56:04;;;;;;;1.57;1.10;;;;;;;12.66;100.00;99684.38;5098070;28;20258;-75
2023/08/10 00:58:32;;;;;;;1.10;1.00;;;;;;;12.62;100.00;99689.41;5096168;28;20188;-76
2023/08/10 01:00:58;;;;;;;1.73;1.00;;;;;;;12.55;100.00;99687.88;5077040;28;20208;-77
2023/08/10 01:03:25;;;;;;;2.13;1.17;;;;;;;12.49;100.00;99703.06;5069266;28;20219;-76
2023/08/10 01:06:26;;;;;;;1.60;1.13;;;;;;;12.41;100.00;99691.81;5074787;28;20582;-76
2023/08/10 01:09:12;;;;;;;1.07;1.03;;;;;;;12.39;100.00;99689.34;5056827;28;20210;-76
2023/08/10 01:11:40;;;;;;;0.93;0.93;;;;;;;12.41;100.00;99700.66;5098464;28;20210;-76
2023/08/10 01:14:12;;;;;;;1.63;1.00;;;;;;;12.40;100.00;99695.53;5101117;28;20189;-77
2023/08/10 01:16:41;;;;;;;1.20;1.10;;;;;;;12.35;100.00;99694.38;5086581;28;20204;-77
2023/08/10 01:19:37;;;;;;;1.20;1.10;;;;;;;12.31;100.00;99695.06;5076317;28;20199;-75
2023/08/10 01:22:25;;;;;;;1.20;1.10;;;;;;;12.23;100.00;99688.13;5097599;28;20594;-76
2023/08/10 01:24:56;;;;;;;1.43;0.97;;;;;;;12.25;100.00;99695.97;5053376;28;20212;-75
2023/08/10 01:27:24;;;;;;;1.83;0.90;;;;;;;12.18;100.00;99693.38;5097317;28;20190;-76
2023/08/10 01:29:51;;;;;;;1.33;1.10;;;;;;;12.17;100.00;99697.13;5081704;28;20223;-75
2023/08/10 01:32:19;;;;;;;1.60;1.07;;;;;;;12.14;100.00;99699.41;5097599;28;20202;-75
2023/08/10 01:34:45;;;;;;;1.90;1.20;;;;;;;12.11;100.00;99706.06;5097766;28;20277;-78
2023/08/10 01:37:12;;;;;;;1.53;1.00;;;;;;;12.09;100.00;99705.47;5098986;28;20617;-75
2023/08/10 01:39:38;;;;;;;1.30;1.10;;;;;;;12.03;100.00;99701.03;5087903;28;20254;-77
2023/08/10 01:42:05;;;;;;;1.13;1.03;;;;;;;12.00;100.00;99703.31;5097400;28;20209;-76
2023/08/10 01:44:32;;;;;;;1.20;1.10;;;;;;;11.98;100.00;99705.44;5090420;28;20237;-76
2023/08/10 01:47:01;;;;;;;1.60;1.13;;;;;;;11.89;100.00;99705.75;5087746;28;20669;-77
2023/08/10 01:49:30;;;;;;;1.27;1.10;;;;;;;11.84;100.00;99700.25;5098732;28;20259;-78
2023/08/10 01:51:57;;;;;;;0.90;0.90;;;;;;;11.79;100.00;99707.31;5078654;28;20206;-75
2023/08/10 01:54:24;;;;;;;1.40;1.30;;;;;;;11.75;100.00;99700.78;5052114;28;20623;-77
2023/08/10 01:56:51;;;;;;;1.47;1.10;;;;;;;11.75;100.00;99709.66;5083581;28;20274;-77
2023/08/10 01:59:18;;;;;;;1.73;1.23;;;;;;;11.71;100.00;99716.47;5079810;28;20259;-77
2023/08/10 02:01:44;;;;;;;1.87;1.13;;;;;;;11.69;100.00;99707.81;5098577;28;20705;-76
2023/08/10 02:04:11;;;;;;;0.97;0.97;;;;;;;11.68;100.00;99710.72;5088975;28;20202;-76
2023/08/10 02:06:40;;;;;;;1.30;1.20;;;;;;;11.66;100.00;99708.28;5087453;28;20636;-76
2023/08/10 02:09:07;;;;;;;1.23;1.13;;;;;;;11.65;100.00;99708.50;5066035;28;20193;-76
2023/08/10 02:11:33;;;;;;;1.20;1.10;;;;;;;11.63;100.00;99705.22;5072802;28;20185;-77
2023/08/10 02:14:00;;;;;;;1.20;1.10;;;;;;;11.63;100.00;99699.84;5072529;28;20237;-77
2023/08/10 02:16:27;;;;;;;3.17;1.20;;;;;;;11.56;100.00;99707.16;5063487;28;20199;-76
2023/08/10 02:18:54;;;;;;;1.23;1.00;;;;;;;11.52;100.00;99705.97;5072856;28;20221;-76
2023/08/10 02:21:23;;;;;;;1.10;1.00;;;;;;;11.46;100.00;99699.63;5072626;28;20203;-78
2023/08/10 02:23:50;;;;;;;2.20;1.23;;;;;;;11.50;100.00;99703.50;5069290;28;20384;-77
2023/08/10 02:26:17;;;;;;;1.47;1.03;;;;;;;11.39;100.00;99704.22;5068886;28;20200;-76
2023/08/10 02:28:44;;;;;;;1.53;1.10;;;;;;;11.32;100.00;99707.00;5059157;28;20203;-76
2023/08/10 02:31:11;;;;;;;1.00;1.00;;;;;;;11.28;100.00;99707.66;5068511;28;20222;-77
2023/08/10 02:33:37;;;;;;;2.40;1.13;;;;;;;11.25;100.00;99719.66;5068572;28;20216;-76
2023/08/10 02:36:07;;;;;;;1.30;1.20;;;;;;;11.26;100.00;99715.94;5068439;28;20697;-76
2023/08/10 02:38:33;;;;;;;1.20;1.10;;;;;;;11.29;100.00;99720.03;5069563;28;20234;-76
2023/08/10 02:41:01;;;;;;;1.50;1.40;;;;;;;11.33;100.00;99714.00;5066991;28;20232;-77
2023/08/10 02:43:28;;;;;;;1.43;1.33;;;;;;;11.37;100.00;99719.75;5071229;28;20213;-76
2023/08/10 02:45:54;;;;;;;1.43;1.20;;;;;;;11.43;100.00;99718.88;5065140;28;20252;-76
2023/08/10 02:48:21;;;;;;;1.17;1.00;;;;;;;11.49;100.00;99726.00;5069016;28;20265;-77
2023/08/10 02:50:48;;;;;;;1.37;1.23;;;;;;;11.49;100.00;99721.47;5064545;28;20589;-76
2023/08/10 02:53:15;;;;;;;1.50;1.40;;;;;;;11.54;100.00;99719.97;5029824;28;20225;-76
2023/08/10 02:55:43;;;;;;;1.77;1.30;;;;;;;11.59;100.00;99723.63;5072055;28;20315;-76
2023/08/10 02:58:10;;;;;;;1.50;1.10;;;;;;;11.62;100.00;99725.84;5052944;28;20244;-78
2023/08/10 03:00:37;;;;;;;1.20;1.20;;;;;;;11.63;100.00;99716.75;5072557;28;20652;-76
2023/08/10 03:03:04;;;;;;;2.47;1.27;;;;;;;11.64;100.00;99720.28;5059040;28;20249;-77
2023/08/10 03:05:31;;;;;;;1.70;1.33;;;;;;;11.66;100.00;99716.34;5063680;28;20187;-76
2023/08/10 03:07:57;;;;;;;1.50;1.07;;;;;;;11.65;100.00;99716.56;5069368;28;20277;-76
2023/08/10 03:10:24;;;;;;;1.57;1.20;;;;;;;11.58;100.00;99719.28;5060883;28;20199;-76
2023/08/10 03:12:51;;;;;;;1.30;1.10;;;;;;;11.56;100.00;99713.34;5072195;28;20204;-76
2023/08/10 03:15:18;;;;;;;1.30;1.10;;;;;;;11.53;100.00;99715.63;5056514;28;20256;-76
2023/08/10 03:17:45;;;;;;;1.27;1.17;;;;;;;11.48;100.00;99719.81;5070202;28;20242;-77
2023/08/10 03:20:16;;;;;;;2.07;1.23;;;;;;;11.45;100.00;99714.09;5071507;28;20199;-77
2023/08/10 03:22:45;;;;;;;1.80;1.60;;;;;;;11.46;100.00;99718.41;5052095;28;20214;-76
2023/08/10 03:25:14;;;;;;;1.73;1.10;;;;;;;11.46;100.00;99731.81;5069041;28;20622;-76
2023/08/10 03:27:41;;;;;;;1.40;1.30;;;;;;;11.43;100.00;99740.34;5053679;28;20629;-76
2023/08/10 03:30:12;;;;;;;1.80;1.40;;;;;;;11.40;100.00;99744.25;5054288;28;20209;-77
2023/08/10 03:32:39;;;;;;;1.30;1.20;;;;;;;11.40;100.00;99754.16;5072006;28;20246;-77
2023/08/10 03:35:07;;;;;;;1.90;1.30;;;;;;;11.40;100.00;99763.03;5071856;28;20289;-76
2023/08/10 03:37:34;;;;;;;1.80;1.70;;;;;;;11.44;100.00;99760.72;5053816;28;20195;-76
2023/08/10 03:40:01;;;;;;;1.60;1.43;;;;;;;11.36;100.00;99767.22;5058806;28;20231;-77
2023/08/10 03:42:27;;;;;;;1.30;1.20;;;;;;;11.35;100.00;99768.25;5043837;28;20644;-76
2023/08/10 03:44:55;;;;;;;1.30;1.20;;;;;;;11.34;100.00;99771.13;5054776;28;20233;-76
2023/08/10 03:47:22;;;;;;;2.37;1.60;;;;;;;11.33;100.00;99778.41;5053632;28;20198;-76
2023/08/10 03:49:49;;;;;;;1.60;1.50;;;;;;;11.34;100.00;99776.50;5071256;28;20196;-76
2023/08/10 03:52:16;;;;;;;1.50;1.40;;;;;;;11.36;100.00;99779.81;5071731;28;20643;-75
2023/08/10 03:54:42;;;;;;;2.43;1.50;;;;;;;11.36;100.00;99775.25;5074201;28;20221;-78
2023/08/10 03:57:09;;;;;;;1.60;1.50;;;;;;;11.36;100.00;99783.31;5064207;28;20195;-76
2023/08/10 03:59:36;;;;;;;1.47;1.37;;;;;;;11.42;100.00;99779.75;5069704;28;20270;-77
2023/08/10 04:02:02;;;;;;;1.57;1.47;;;;;;;11.49;100.00;99783.16;5063682;28;20604;-77
2023/08/10 04:04:29;;;;;;;1.67;1.30;;;;;;;11.54;100.00;99779.00;5057847;28;20482;-76
2023/08/10 04:06:56;;;;;;;1.80;1.70;;;;;;;11.53;100.00;99782.72;5074529;28;20237;-76
2023/08/10 04:09:23;;;;;;;2.33;1.50;;;;;;;11.54;100.00;99777.13;5073016;28;20258;-76
2023/08/10 04:11:50;;;;;;;1.47;1.37;;;;;;;11.56;100.00;99780.44;5114053;28;20253;-76
2023/08/10 04:14:17;;;;;;;1.50;1.40;;;;;;;11.55;100.00;99777.97;5102937;28;20206;-75
2023/08/10 04:16:43;;;;;;;1.83;1.50;;;;;;;11.57;100.00;99771.31;5091643;28;20590;-76
2023/08/10 04:19:10;;;;;;;2.60;1.60;;;;;;;11.58;100.00;99772.13;5078419;28;20201;-77
2023/08/10 04:21:37;;;;;;;1.73;1.63;;;;;;;11.60;100.00;99775.44;5090389;28;20276;-77
2023/08/10 04:24:04;;;;;;;1.60;1.50;;;;;;;11.67;100.00;99770.81;5075464;28;20636;-77
2023/08/10 04:26:30;;;;;;;1.90;1.60;;;;;;;11.78;100.00;99770.94;5097835;28;20252;-77
2023/08/10 04:28:57;;;;;;;1.77;1.67;;;;;;;11.89;100.00;99782.78;5094139;28;20660;-77
2023/08/10 04:31:24;;;;;;;1.63;1.53;;;;;;;12.03;100.00;99786.13;5093576;28;20199;-77
2023/08/10 04:33:50;;;;;;;2.00;1.50;;;;;;;12.13;100.00;99781.84;5098345;28;20229;-77
2023/08/10 04:36:17;;;;;;;1.80;1.70;;;;;;;12.31;100.00;99779.16;5096676;28;20265;-77
2023/08/10 04:38:44;;;;;;;1.93;1.50;;;;;;;12.48;100.00;99781.19;5087780;28;20261;-77
2023/08/10 04:41:10;;;;;;;1.40;1.30;;;;;;;12.72;100.00;99777.53;5095435;28;20213;-78
2023/08/10 04:43:37;;;;;;;2.37;1.70;;;;;;;12.97;100.00;99785.44;5095861;28;20664;-77
2023/08/10 04:46:04;;;;;;;1.60;1.50;;;;;;;13.28;100.00;99787.03;5095794;28;20643;-77
2023/08/10 04:48:30;;;;;;;1.83;1.70;;;;;;;13.59;100.00;99781.28;5095437;28;20191;-77
2023/08/10 04:50:57;;;;;;;1.60;1.50;;;;;;;13.90;100.00;99783.59;5095859;28;20199;-77
2023/08/10 04:53:24;;;;;;;2.93;1.27;;;;;;;14.20;100.00;99783.38;5095793;28;20213;-77
2023/08/10 04:55:51;;;;;;;1.27;1.17;;;;;;;14.48;100.00;99777.22;5095849;28;20241;-77
2023/08/10 04:58:17;;;;;;;1.53;1.30;;;;;;;14.76;100.00;99782.59;5095777;28;20188;-77
2023/08/10 05:00:44;;;;;;;1.43;1.30;;;;;;;15.11;100.00;99781.56;5077621;28;20654;-77
2023/08/10 05:03:11;;;;;;;1.70;1.40;;;;;;;15.47;100.00;99793.72;5095422;28;20221;-77
2023/08/10 05:05:39;;;;;;;2.40;1.47;;;;;;;15.73;100.00;99788.47;5095447;28;20188;-78
2023/08/10 05:08:07;;;;;;;1.70;1.43;;;;;;;15.89;100.00;99788.69;5081563;28;20252;-76
2023/08/10 05:10:34;;;;;;;1.30;1.20;;;;;;;15.94;100.00;99786.88;5074925;28;20193;-77
2023/08/10 05:13:00;;;;;;;2.90;1.53;;;;;;;16.03;100.00;99790.75;5074909;28;20695;-77
2023/08/10 05:15:28;;;;;;;1.87;1.77;;;;;;;15.95;100.00;99796.63;5074825;28;20209;-77
2023/08/10 05:17:55;;;;;;;1.87;1.60;;;;;;;15.97;100.00;99793.63;5075286;28;20254;-77
2023/08/10 05:20:22;;;;;;;1.40;1.20;;;;;;;15.94;100.00;99794.97;5074955;28;20196;-77
2023/08/10 05:22:49;;;;;;;2.13;1.40;;;;;;;15.98;100.00;99795.28;5074509;28;20205;-77
2023/08/10 05:25:17;;;;;;;1.20;1.10;;;;;;;16.02;100.00;99789.13;5074455;28;20193;-78
2023/08/10 05:27:45;;;;;;;1.50;1.40;;;;;;;16.07;100.00;99791.06;5074560;28;20177;-78
2023/08/10 05:30:12;;;;;;;1.87;1.23;;;;;;;16.10;100.00;99799.47;5074356;28;20615;-78
2023/08/10 05:32:39;;;;;;;1.43;1.30;;;;;;;16.12;100.00;99800.06;5074375;28;20276;-77
2023/08/10 05:35:07;;;;;;;1.23;1.13;;;;;;;16.26;100.00;99805.91;5074335;28;20185;-77
2023/08/10 05:37:34;;;;;;;2.40;1.23;;;;;;;16.27;100.00;99802.97;5074321;28;20178;-77
2023/08/10 05:40:03;;;;;;;1.20;1.10;;;;;;;16.35;100.00;99812.50;5073587;28;20679;-77
2023/08/10 05:42:29;;;;;;;1.33;1.23;;;;;;;16.48;100.00;99811.28;5067744;28;20189;-77
2023/08/10 05:44:56;;;;;;;1.47;1.30;;;;;;;16.61;100.00;99810.94;5068325;28;20276;-77
2023/08/10 05:47:23;;;;;;;2.50;1.30;;;;;;;16.53;100.00;99809.47;5072344;28;20201;-79
2023/08/10 05:49:49;;;;;;;1.40;1.30;;;;;;;16.81;100.00;99813.84;5067414;28;20197;-77
2023/08/10 05:52:16;;;;;;;1.83;1.30;;;;;;;16.98;100.00;99808.34;5072695;28;20224;-78
2023/08/10 05:54:43;;;;;;;1.33;1.23;;;;;;;17.12;100.00;99809.53;5072731;28;20697;-78
2023/08/10 05:57:10;;;;;;;1.87;1.20;;;;;;;17.21;100.00;99812.59;5067287;28;20213;-78
2023/08/10 05:59:36;;;;;;;1.40;1.30;;;;;;;17.25;100.00;99814.53;5072919;28;20201;-78
2023/08/10 06:02:03;;;;;;;1.47;1.33;;;;;;;17.04;100.00;99818.94;5072870;28;20228;-79
2023/08/10 06:04:30;;;;;;;1.40;1.30;;;;;;;16.89;100.00;99816.06;5066362;28;20274;-77
2023/08/10 06:06:57;;;;;;;1.13;1.03;;;;;;;17.00;100.00;99812.41;5072493;28;20279;-78
2023/08/10 06:09:23;;;;;;;1.57;1.30;;;;;;;17.00;100.00;99806.16;5066758;28;20734;-84
2023/08/10 06:11:51;;;;;;;1.50;1.30;;;;;;;16.94;100.00;99809.88;5068718;28;20190;-77
2023/08/10 06:14:19;;;;;;;1.40;1.30;;;;;;;16.87;100.00;99803.88;5070821;28;20266;-77
2023/08/10 06:16:46;;;;;;;3.20;1.50;;;;;;;16.78;100.00;99808.94;5063776;28;20208;-77
2023/08/10 06:19:13;;;;;;;2.40;1.40;;;;;;;16.94;100.00;99812.59;5069894;28;20273;-77
2023/08/10 06:21:40;;;;;;;2.80;1.70;;;;;;;17.16;100.00;99813.38;5043332;28;20200;-78
2023/08/10 06:24:09;;;;;;;2.53;1.30;;;;;;;17.31;100.00;99820.78;5067001;28;20216;-77
2023/08/10 06:26:38;;;;;;;3.43;1.73;;;;;;;17.43;100.00;99819.53;5064442;28;20277;-78
2023/08/10 06:29:05;;;;;;;3.00;1.40;;;;;;;17.46;100.00;99819.00;5063102;28;20200;-77
2023/08/10 06:31:32;;;;;;;2.10;1.30;;;;;;;17.58;100.00;99818.81;5065968;28;20226;-78
2023/08/10 06:33:59;;;;;;;1.90;1.40;;;;;;;17.72;100.00;99821.94;5068918;28;20194;-77
2023/08/10 06:36:27;;;;;;;1.47;1.33;;;;;;;17.85;100.00;99813.34;5070336;28;20296;-78
2023/08/10 06:38:54;;;;;;;1.30;1.20;;;;;;;18.09;100.00;99814.53;5068323;28;20190;-76
2023/08/10 06:41:21;;;;;;;2.27;1.13;;;;;;;18.18;100.00;99812.13;5067669;28;20203;-76
2023/08/10 06:43:47;;;;;;;2.93;1.60;;;;;;;18.26;100.00;99808.91;5068887;28;20675;-75
2023/08/10 06:46:14;;;;;;;2.43;1.50;;;;;;;18.37;100.00;99816.84;5071546;28;20248;-76
2023/08/10 06:48:41;;;;;;;1.50;1.40;;;;;;;18.53;100.00;99817.72;5071460;28;20281;-75
2023/08/10 06:51:08;;;;;;;1.50;1.40;;;;;;;18.67;100.00;99823.44;5063865;28;20191;-76
2023/08/10 06:53:34;;;;;;;1.73;1.40;;;;;;;18.62;100.00;99813.41;5063188;28;20293;-76
2023/08/10 06:56:01;;;;;;;1.30;1.20;;;;;;;18.76;100.00;99817.22;5067207;28;20647;-76
2023/08/10 06:58:28;;;;;;;1.40;1.30;;;;;;;18.72;100.00;99815.31;5068638;28;20274;-76
2023/08/10 07:00:57;;;;;;;1.20;1.10;;;;;;;18.81;100.00;99813.72;5070874;28;20217;-77
2023/08/10 07:03:24;;;;;;;1.43;1.07;;;;;;;18.98;100.00;99818.91;5067187;28;20263;-76
2023/08/10 07:05:51;;;;;;;1.27;1.10;;;;;;;18.79;100.00;99818.59;5071531;28;20185;-77
2023/08/10 07:08:17;;;;;;;1.20;1.07;;;;;;;18.99;100.00;99821.31;5098673;28;20265;-77
2023/08/10 07:10:44;;;;;;;1.50;1.40;;;;;;;19.10;100.00;99824.88;5097237;28;20217;-76
2023/08/10 07:13:11;;;;;;;1.33;1.23;;;;;;;19.15;100.00;99831.13;5112152;28;20662;-76
2023/08/10 07:15:37;;;;;;;1.80;1.40;;;;;;;19.22;100.00;99836.31;5111812;28;20206;-77
2023/08/10 07:18:04;;;;;;;1.23;1.13;;;;;;;19.41;100.00;99837.38;5111839;28;20273;-76
2023/08/10 07:20:31;;;;;;;1.33;1.23;;;;;;;19.71;100.00;99836.56;5109684;28;20191;-76
2023/08/10 07:22:59;;;;;;;1.33;1.23;;;;;;;20.04;100.00;99840.56;5100594;28;20187;-78
2023/08/10 07:25:27;;;;;;;1.20;1.10;;;;;;;20.26;100.00;99837.50;5091905;28;20274;-77
2023/08/10 07:27:54;;;;;;;2.20;1.40;;;;;;;20.41;100.00;99835.56;5103644;28;20684;-79
2023/08/10 07:30:21;;;;;;;1.60;1.50;;;;;;;20.42;100.00;99834.50;5116033;28;20192;-76
2023/08/10 07:32:48;;;;;;;2.20;1.60;;;;;;;20.58;100.00;99835.22;5116307;28;20194;-77
2023/08/10 07:35:15;;;;;;;1.53;1.43;;;;;;;21.01;100.00;99847.22;5115795;28;20604;-77
2023/08/10 07:37:42;;;;;;;1.53;1.43;;;;;;;21.06;100.00;99839.81;5111200;28;20200;-77
2023/08/10 07:40:11;;;;;;;1.50;1.40;;;;;;;21.51;100.00;99840.59;5103870;28;20289;-78
2023/08/10 07:42:38;;;;;;;1.20;1.10;;;;;;;21.81;100.00;99842.22;5116155;28;20635;-77
2023/08/10 07:45:05;;;;;;;1.97;1.33;;;;;;;21.09;100.00;99841.97;5109855;28;20216;-78
2023/08/10 07:47:32;;;;;;;1.70;1.60;;;;;;;21.40;100.00;99844.50;5104278;28;20196;-78
2023/08/10 07:49:59;;;;;;;1.60;1.50;;;;;;;21.82;100.00;99841.94;5107358;28;20223;-78
2023/08/10 07:52:26;;;;;;;1.40;1.30;;;;;;;22.18;100.00;99831.47;5103498;28;20218;-78
2023/08/10 07:54:52;;;;;;;1.60;1.50;;;;;;;22.02;100.00;99831.94;5106300;28;20255;-77
2023/08/10 07:57:19;;;;;;;1.83;1.70;;;;;;;21.88;100.00;99834.53;5101664;28;20246;-77
2023/08/10 07:59:45;;;;;;;1.67;1.58;;;;;;;21.42;100.00;99832.22;5103267;28;20214;-78
2023/08/10 08:02:12;;;;;;;1.63;1.52;;;;;;;21.80;100.00;99830.50;5103712;28;20252;-78
2023/08/10 08:04:39;;;;;;;1.67;1.50;;;;;;;22.10;100.00;99823.94;5103487;28;20215;-78
2023/08/10 08:07:05;;;;;;;1.88;1.67;;;;;;;21.26;100.00;99829.91;5088202;28;20232;-76
2023/08/10 08:09:33;;;;;;;1.92;1.58;;;;;;;21.24;100.00;99824.75;5074218;28;20201;-77
2023/08/10 08:11:59;;;;;;;1.67;1.58;;;;;;;21.71;100.00;99832.22;5074376;28;20216;-78
2023/08/10 08:14:26;;;;;;;1.60;1.50;;;;;;;22.05;100.00;99832.19;5074015;28;20194;-77
2023/08/10 08:16:53;;;;;;;1.67;1.42;;;;;;;22.50;100.00;99832.72;5053757;28;20276;-78
2023/08/10 08:19:19;;;;;;;1.73;1.63;;;;;;;22.15;100.00;99831.25;5074359;28;20203;-78
2023/08/10 08:21:48;;;;;;;1.70;1.50;;;;;;;22.68;100.00;99827.28;5068712;28;20254;-77
2023/08/10 08:24:15;;;;;;;1.80;1.60;;;;;;;22.59;100.00;99826.31;5070577;28;20215;-78
2023/08/10 08:26:42;;;;;;;1.98;1.40;;;;;;;23.23;100.00;99824.88;5074775;28;20224;-78
2023/08/10 08:29:09;;;;;;;1.70;1.33;;;;;;;23.74;100.00;99826.75;5074046;28;20193;-78
2023/08/10 08:31:35;;;;;;;1.90;1.80;;;;;;;23.75;100.00;99823.69;5074079;28;20659;-78
2023/08/10 08:34:03;;;;;;;2.00;1.80;;;;;;;24.15;100.00;99819.38;5074102;28;20300;-79
2023/08/10 08:36:30;;;;;;;1.83;1.70;;;;;;;24.54;100.00;99825.16;5074493;28;20249;-78
2023/08/10 08:38:57;;;;;;;1.85;1.70;;;;;;;24.70;100.00;99811.13;5073831;28;20674;-77
2023/08/10 08:41:25;;;;;;;1.67;1.58;;;;;;;24.63;100.00;99821.69;5073755;28;20214;-78
2023/08/10 08:43:52;;;;;;;2.13;1.75;;;;;;;24.44;100.00;99817.16;5064529;28;20240;-78
2023/08/10 08:46:25;;;;;;;1.80;1.70;;;;;;;24.02;100.00;99814.72;5071189;28;20205;-77
2023/08/10 08:48:52;;;;;;;1.75;1.65;;;;;;;23.26;100.00;99814.13;5065147;28;20196;-77
2023/08/10 08:51:19;;;;;;;2.05;1.77;;;;;;;23.18;100.00;99814.00;5061591;28;20657;-77
2023/08/10 08:53:46;;;;;;;3.90;1.55;;;;;;;22.94;100.00;99813.28;5071177;28;20197;-77
2023/08/10 08:56:14;;;;;;;1.95;1.73;;;;;;;22.16;100.00;99817.28;5072166;28;20239;-80
2023/08/10 08:58:40;;;;;;;1.90;1.80;;;;;;;22.27;100.00;99816.06;5072583;28;20207;-78
2023/08/10 09:01:08;;;;;;;2.10;1.75;;;;;;;22.08;100.00;99823.41;5071977;28;20640;-78
2023/08/10 09:03:35;;;;;;;2.13;1.67;;;;;;;21.98;100.00;99823.50;5050189;28;20238;-77
2023/08/10 09:06:01;;;;;;;2.33;2.13;;;;;;;21.71;100.00;99832.22;5073453;28;20254;-77
2023/08/10 09:08:29;;;;;;;3.13;2.20;;;;;;;21.77;100.00;99830.25;5073656;28;20293;-78
2023/08/10 09:10:58;;;;;;;3.05;2.00;;;;;;;21.57;100.00;99823.09;5055667;28;20280;-80
2023/08/10 09:13:24;;;;;;;2.13;1.92;;;;;;;21.43;100.00;99830.31;5073408;28;20604;-78
2023/08/10 09:16:04;;;;;;;2.10;2.00;;;;;;;20.90;100.00;99821.16;5070553;28;20196;-78
2023/08/10 09:18:36;;;;;;;1.60;1.50;;;;;;;21.11;100.00;99825.34;5059736;28;20684;-76
2023/08/10 09:21:16;;;;;;;1.60;1.50;;;;;;;21.12;100.00;99821.53;5073410;28;20197;-77
2023/08/10 09:23:46;;;;;;;1.60;1.50;;;;;;;21.41;100.00;99837.97;5071907;28;20217;-78
2023/08/10 09:26:16;;;;;;;1.85;1.75;;;;;;;21.37;100.00;99829.53;5069467;28;20553;-77
2023/08/10 09:28:43;;;;;;;1.90;1.60;;;;;;;21.79;100.00;99834.31;5048418;28;20199;-77
2023/08/10 09:31:11;;;;;;;1.85;1.60;;;;;;;22.39;100.00;99826.59;5072666;28;20193;-76
2023/08/10 09:33:41;;;;;;;1.65;1.55;;;;;;;22.57;100.00;99822.25;5066946;28;20647;-76
2023/08/10 09:36:08;;;;;;;1.80;1.60;;;;;;;22.45;100.00;99825.41;5073260;28;20235;-78
2023/08/10 09:38:35;;;;;;;1.80;1.70;;;;;;;22.10;100.00;99821.22;5070189;28;20804;-77
2023/08/10 09:41:13;;;;;;;1.90;1.80;;;;;;;22.32;100.00;99821.47;5073036;28;20283;-77
2023/08/10 09:43:40;;;;;;;1.88;1.77;;;;;;;23.14;100.00;99811.03;5066109;28;20204;-76
2023/08/10 09:46:09;;;;;;;2.10;2.00;;;;;;;22.92;100.00;99813.56;5072646;28;20223;-77
2023/08/10 09:48:38;;;;;;;1.90;1.80;;;;;;;22.55;100.00;99810.81;5072700;28;20226;-77
2023/08/10 09:51:06;;;;;;;1.88;1.77;;;;;;;22.81;100.00;99807.47;5062391;28;20264;-77
2023/08/10 09:53:33;;;;;;;2.40;1.83;;;;;;;23.41;100.00;99820.47;5057563;28;20241;-76
2023/08/10 09:56:00;;;;;;;2.10;1.70;;;;;;;23.93;100.00;99822.00;5072198;28;20280;-76
2023/08/10 09:58:28;;;;;;;1.90;1.70;;;;;;;24.08;100.00;99821.69;5065655;28;20586;-77
2023/08/10 10:00:55;;;;;;;1.85;1.75;;;;;;;24.14;100.00;99812.28;5072673;28;20636;-77
2023/08/10 10:03:22;;;;;;;2.78;2.00;;;;;;;24.35;100.00;99823.66;5072600;28;20242;-78
2023/08/10 10:05:50;;;;;;;1.80;1.70;;;;;;;24.77;100.00;99820.56;5072492;28;20215;-76
2023/08/10 10:08:17;;;;;;;1.90;1.80;;;;;;;25.20;100.00;99820.09;5071026;28;20328;-76
2023/08/10 10:10:47;;;;;;;1.60;1.50;;;;;;;25.60;100.00;99812.84;5065535;28;20631;-78
2023/08/10 10:13:15;;;;;;;1.73;1.63;;;;;;;25.75;99.59;99821.47;5072419;28;20189;-76
2023/08/10 10:15:43;;;;;;;3.22;1.90;;;;;;;24.89;99.29;99822.78;5071974;28;20253;-77
2023/08/10 10:18:11;;;;;;;1.65;1.52;;;;;;;24.86;99.00;99820.63;5056140;28;20185;-78
2023/08/10 10:20:40;;;;;;;1.70;1.60;;;;;;;25.09;98.63;99822.31;5050680;28;20209;-76
2023/08/10 10:23:15;;;;;;;1.83;1.73;;;;;;;24.81;96.06;99821.56;5067236;28;20709;-76
2023/08/10 10:26:03;;;;;;;2.17;1.95;;;;;;;24.84;96.63;99814.63;5071433;28;20212;-76
2023/08/10 10:28:33;;;;;;;1.95;1.80;;;;;;;24.99;96.42;99814.31;5053511;28;20565;-77
2023/08/10 10:31:08;;;;;;;2.03;1.92;;;;;;;24.81;97.70;99805.13;5067398;28;20618;-77
2023/08/10 10:33:54;;;;;;;2.13;1.77;;;;;;;25.15;96.84;99804.59;5069967;28;21207;-76
2023/08/10 10:36:20;;;;;;;3.85;1.75;;;;;;;25.53;98.29;99794.03;5068385;28;20196;-75
2023/08/10 10:38:56;;;;;;;1.83;1.73;;;;;;;25.33;100.00;99791.84;5041557;28;20189;-78
2023/08/10 10:41:32;;;;;;;2.08;1.95;;;;;;;25.81;100.00;99787.25;5071410;28;20207;-76
2023/08/10 10:44:02;;;;;;;2.40;2.20;;;;;;;24.91;100.00;99787.66;5053990;28;20216;-75
2023/08/10 10:46:38;;;;;;;3.33;2.40;;;;;;;24.83;100.00;99793.81;5055798;28;20226;-76
2023/08/10 10:49:06;;;;;;;3.58;2.50;;;;;;;24.04;100.00;99801.53;5070490;28;20197;-75
2023/08/10 10:51:52;;;;;;;2.28;2.08;;;;;;;24.84;100.00;99792.72;5071335;28;20231;-77
2023/08/10 10:54:19;;;;;;;2.03;1.80;;;;;;;24.90;100.00;99797.00;5071496;28;20250;-75
2023/08/10 10:56:46;;;;;;;2.10;2.00;;;;;;;24.96;100.00;99799.28;5067038;28;20223;-78
2023/08/10 10:59:14;;;;;;;2.15;1.90;;;;;;;24.71;100.00;99797.13;5071647;28;20189;-75
2023/08/10 11:01:45;;;;;;;2.53;2.00;;;;;;;24.67;100.00;99796.13;5071248;28;20207;-78
2023/08/10 11:04:12;;;;;;;2.38;2.13;;;;;;;23.63;100.00;99796.84;5063528;28;20216;-75
2023/08/10 11:06:39;;;;;;;2.33;2.13;;;;;;;22.02;100.00;99791.84;5073457;28;20277;-74
2023/08/10 11:09:09;;;;;;;1.95;1.70;;;;;;;22.32;100.00;99788.72;5103909;28;20196;-75
2023/08/10 11:11:36;;;;;;;2.33;1.88;;;;;;;22.19;100.00;99788.63;5096033;28;20219;-75
2023/08/10 11:14:03;;;;;;;1.70;1.60;;;;;;;22.84;100.00;99773.28;5112076;28;20250;-75
2023/08/10 11:16:34;;;;;;;1.92;1.83;;;;;;;23.82;100.00;99780.34;5099668;28;20699;-75
2023/08/10 11:19:07;;;;;;;1.80;1.70;;;;;;;24.39;100.00;99772.66;5102941;28;20226;-75
2023/08/10 11:21:38;;;;;;;1.70;1.60;;;;;;;24.95;100.00;99766.72;5103488;28;20208;-76
2023/08/10 11:24:06;;;;;;;2.33;1.80;;;;;;;24.04;100.00;99768.69;5103113;28;20273;-75
2023/08/10 11:26:34;;;;;;;2.15;1.95;;;;;;;24.08;98.26;99765.03;5107320;28;20198;-77
2023/08/10 11:29:00;;;;;;;1.83;1.70;;;;;;;23.55;97.22;99770.19;5109409;28;20216;-76
2023/08/10 11:31:27;;;;;;;2.35;1.80;;;;;;;24.45;94.74;99760.47;5079551;28;20252;-75